sensor_id;sensor_type;location;lat;lon;timestamp;P1;durP1;ratioP1;P2;durP2;ratioP2
53525;SDS011;40551;50.478;19.378;2023-09-30T00:00:13;23.90;;;19.90;;
53525;SDS011;40551;50.478;19.378;2023-09-30T00:03:05;20.00;;;17.90;;
53525;SDS011;40551;50.478;19.378;2023-09-30T00:05:37;21.90;;;18.80;;
53525;SDS011;40551;50.478;19.378;2023-09-30T00:08:09;23.00;;;17.90;;
53525;SDS011;40551;50.478;19.378;2023-09-30T00:10:40;21.70;;;18.20;;
53525;SDS011;40551;50.478;19.378;2023-09-30T00:15:42;25.40;;;19.20;;
53525;SDS011;40551;50.478;19.378;2023-09-30T00:18:14;21.30;;;18.20;;
53525;SDS011;40551;50.478;19.378;2023-09-30T00:20:46;22.50;;;18.70;;
53525;SDS011;40551;50.478;19.378;2023-09-30T00:23:17;24.00;;;19.00;;
53525;SDS011;40551;50.478;19.378;2023-09-30T00:25:50;25.40;;;17.60;;
53525;SDS011;40551;50.478;19.378;2023-09-30T00:28:22;20.30;;;17.80;;
53525;SDS011;40551;50.478;19.378;2023-09-30T00:30:53;20.80;;;18.40;;
53525;SDS011;40551;50.478;19.378;2023-09-30T00:33:25;22.10;;;19.00;;
53525;SDS011;40551;50.478;19.378;2023-09-30T00:35:57;25.20;;;18.70;;
53525;SDS011;40551;50.478;19.378;2023-09-30T00:40:59;20.00;;;17.60;;
53525;SDS011;40551;50.478;19.378;2023-09-30T00:46:04;21.90;;;17.40;;
53525;SDS011;40551;50.478;19.378;2023-09-30T00:48:39;22.30;;;18.80;;
53525;SDS011;40551;50.478;19.378;2023-09-30T00:51:11;22.40;;;18.50;;
53525;SDS011;40551;50.478;19.378;2023-09-30T00:53:43;20.10;;;17.90;;
53525;SDS011;40551;50.478;19.378;2023-09-30T00:56:15;20.60;;;18.50;;
53525;SDS011;40551;50.478;19.378;2023-09-30T00:58:47;25.00;;;18.80;;
53525;SDS011;40551;50.478;19.378;2023-09-30T01:01:20;20.50;;;18.10;;
53525;SDS011;40551;50.478;19.378;2023-09-30T01:03:53;20.90;;;18.80;;
53525;SDS011;40551;50.478;19.378;2023-09-30T01:06:25;20.70;;;18.50;;
53525;SDS011;40551;50.478;19.378;2023-09-30T01:08:57;20.10;;;18.20;;
53525;SDS011;40551;50.478;19.378;2023-09-30T01:11:29;20.70;;;17.90;;
53525;SDS011;40551;50.478;19.378;2023-09-30T01:14:01;20.90;;;18.70;;
53525;SDS011;40551;50.478;19.378;2023-09-30T01:16:33;21.10;;;18.40;;
53525;SDS011;40551;50.478;19.378;2023-09-30T01:19:04;20.90;;;18.60;;
53525;SDS011;40551;50.478;19.378;2023-09-30T01:21:36;20.70;;;18.60;;
53525;SDS011;40551;50.478;19.378;2023-09-30T01:24:09;21.30;;;17.10;;
53525;SDS011;40551;50.478;19.378;2023-09-30T01:26:41;22.00;;;18.20;;
53525;SDS011;40551;50.478;19.378;2023-09-30T01:29:13;19.80;;;17.60;;
53525;SDS011;40551;50.478;19.378;2023-09-30T01:31:46;20.80;;;18.60;;
53525;SDS011;40551;50.478;19.378;2023-09-30T01:34:19;20.20;;;18.10;;
53525;SDS011;40551;50.478;19.378;2023-09-30T01:36:52;20.80;;;18.00;;
53525;SDS011;40551;50.478;19.378;2023-09-30T01:39:24;20.90;;;18.20;;
53525;SDS011;40551;50.478;19.378;2023-09-30T01:41:56;21.80;;;18.00;;
53525;SDS011;40551;50.478;19.378;2023-09-30T01:44:28;21.70;;;19.40;;
53525;SDS011;40551;50.478;19.378;2023-09-30T01:47:01;20.20;;;18.10;;
53525;SDS011;40551;50.478;19.378;2023-09-30T01:49:33;20.90;;;18.30;;
53525;SDS011;40551;50.478;19.378;2023-09-30T01:54:35;22.10;;;16.90;;
53525;SDS011;40551;50.478;19.378;2023-09-30T01:57:06;19.50;;;17.50;;
53525;SDS011;40551;50.478;19.378;2023-09-30T01:59:39;20.70;;;17.70;;
53525;SDS011;40551;50.478;19.378;2023-09-30T02:02:11;20.20;;;17.90;;
53525;SDS011;40551;50.478;19.378;2023-09-30T02:04:42;23.10;;;18.70;;
53525;SDS011;40551;50.478;19.378;2023-09-30T02:07:14;19.20;;;16.90;;
53525;SDS011;40551;50.478;19.378;2023-09-30T02:09:46;20.00;;;18.00;;
53525;SDS011;40551;50.478;19.378;2023-09-30T02:12:18;21.50;;;17.90;;
53525;SDS011;40551;50.478;19.378;2023-09-30T02:14:49;19.90;;;17.60;;
53525;SDS011;40551;50.478;19.378;2023-09-30T02:17:21;19.20;;;17.10;;
53525;SDS011;40551;50.478;19.378;2023-09-30T02:19:53;20.50;;;18.20;;
53525;SDS011;40551;50.478;19.378;2023-09-30T02:22:25;21.60;;;17.30;;
53525;SDS011;40551;50.478;19.378;2023-09-30T02:24:58;19.70;;;17.60;;
53525;SDS011;40551;50.478;19.378;2023-09-30T02:27:29;21.70;;;18.20;;
53525;SDS011;40551;50.478;19.378;2023-09-30T02:30:01;23.00;;;18.40;;
53525;SDS011;40551;50.478;19.378;2023-09-30T02:32:34;26.20;;;19.10;;
53525;SDS011;40551;50.478;19.378;2023-09-30T02:35:06;21.30;;;17.30;;
53525;SDS011;40551;50.478;19.378;2023-09-30T02:37:40;20.50;;;18.30;;
53525;SDS011;40551;50.478;19.378;2023-09-30T02:40:12;20.00;;;17.40;;
53525;SDS011;40551;50.478;19.378;2023-09-30T02:42:46;20.30;;;18.00;;
53525;SDS011;40551;50.478;19.378;2023-09-30T02:45:18;21.20;;;18.00;;
53525;SDS011;40551;50.478;19.378;2023-09-30T02:47:50;25.40;;;17.70;;
53525;SDS011;40551;50.478;19.378;2023-09-30T02:50:22;21.50;;;18.00;;
53525;SDS011;40551;50.478;19.378;2023-09-30T02:52:53;18.20;;;16.40;;
53525;SDS011;40551;50.478;19.378;2023-09-30T02:55:26;22.30;;;17.70;;
53525;SDS011;40551;50.478;19.378;2023-09-30T02:57:58;21.40;;;16.60;;
53525;SDS011;40551;50.478;19.378;2023-09-30T03:00:29;20.90;;;17.90;;
53525;SDS011;40551;50.478;19.378;2023-09-30T03:03:04;19.20;;;17.20;;
53525;SDS011;40551;50.478;19.378;2023-09-30T03:05:37;20.80;;;17.90;;
53525;SDS011;40551;50.478;19.378;2023-09-30T03:08:08;20.40;;;18.20;;
53525;SDS011;40551;50.478;19.378;2023-09-30T03:10:40;22.00;;;18.40;;
53525;SDS011;40551;50.478;19.378;2023-09-30T03:13:12;19.50;;;17.50;;
53525;SDS011;40551;50.478;19.378;2023-09-30T03:15:43;19.80;;;17.70;;
53525;SDS011;40551;50.478;19.378;2023-09-30T03:18:16;21.50;;;17.10;;
53525;SDS011;40551;50.478;19.378;2023-09-30T03:20:52;21.20;;;17.40;;
53525;SDS011;40551;50.478;19.378;2023-09-30T03:23:29;21.40;;;17.80;;
53525;SDS011;40551;50.478;19.378;2023-09-30T03:26:01;19.50;;;17.40;;
53525;SDS011;40551;50.478;19.378;2023-09-30T03:28:32;20.30;;;16.60;;
53525;SDS011;40551;50.478;19.378;2023-09-30T03:31:04;20.20;;;17.40;;
53525;SDS011;40551;50.478;19.378;2023-09-30T03:33:37;20.60;;;18.40;;
53525;SDS011;40551;50.478;19.378;2023-09-30T03:36:09;18.60;;;16.70;;
53525;SDS011;40551;50.478;19.378;2023-09-30T03:38:41;21.30;;;18.10;;
53525;SDS011;40551;50.478;19.378;2023-09-30T03:41:13;20.60;;;17.90;;
53525;SDS011;40551;50.478;19.378;2023-09-30T03:43:45;18.60;;;16.60;;
53525;SDS011;40551;50.478;19.378;2023-09-30T03:46:18;19.80;;;17.90;;
53525;SDS011;40551;50.478;19.378;2023-09-30T03:48:50;21.90;;;19.40;;
53525;SDS011;40551;50.478;19.378;2023-09-30T03:51:21;19.80;;;17.70;;
53525;SDS011;40551;50.478;19.378;2023-09-30T03:53:54;21.20;;;17.40;;
53525;SDS011;40551;50.478;19.378;2023-09-30T03:56:26;20.60;;;17.80;;
53525;SDS011;40551;50.478;19.378;2023-09-30T03:58:58;19.80;;;17.00;;
53525;SDS011;40551;50.478;19.378;2023-09-30T04:01:30;19.70;;;17.20;;
53525;SDS011;40551;50.478;19.378;2023-09-30T04:04:01;18.80;;;16.30;;
53525;SDS011;40551;50.478;19.378;2023-09-30T04:06:36;18.00;;;15.90;;
53525;SDS011;40551;50.478;19.378;2023-09-30T04:09:08;18.50;;;16.50;;
53525;SDS011;40551;50.478;19.378;2023-09-30T04:11:40;19.30;;;16.00;;
53525;SDS011;40551;50.478;19.378;2023-09-30T04:14:12;18.60;;;16.60;;
53525;SDS011;40551;50.478;19.378;2023-09-30T04:16:46;23.70;;;21.40;;
53525;SDS011;40551;50.478;19.378;2023-09-30T04:19:17;33.00;;;26.30;;
53525;SDS011;40551;50.478;19.378;2023-09-30T04:21:50;25.10;;;22.40;;
53525;SDS011;40551;50.478;19.378;2023-09-30T04:24:21;31.10;;;26.80;;
53525;SDS011;40551;50.478;19.378;2023-09-30T04:26:53;30.10;;;23.70;;
53525;SDS011;40551;50.478;19.378;2023-09-30T04:29:31;24.20;;;21.70;;
53525;SDS011;40551;50.478;19.378;2023-09-30T04:32:03;22.30;;;18.00;;
53525;SDS011;40551;50.478;19.378;2023-09-30T04:34:35;19.40;;;16.10;;
53525;SDS011;40551;50.478;19.378;2023-09-30T04:39:38;23.80;;;15.30;;
53525;SDS011;40551;50.478;19.378;2023-09-30T04:42:10;18.10;;;16.20;;
53525;SDS011;40551;50.478;19.378;2023-09-30T04:44:42;17.50;;;15.70;;
53525;SDS011;40551;50.478;19.378;2023-09-30T04:47:13;17.80;;;16.00;;
53525;SDS011;40551;50.478;19.378;2023-09-30T04:49:45;19.70;;;15.90;;
53525;SDS011;40551;50.478;19.378;2023-09-30T04:52:16;16.10;;;14.50;;
53525;SDS011;40551;50.478;19.378;2023-09-30T04:54:49;22.40;;;15.40;;
53525;SDS011;40551;50.478;19.378;2023-09-30T04:57:21;17.10;;;15.00;;
53525;SDS011;40551;50.478;19.378;2023-09-30T04:59:53;18.00;;;15.70;;
53525;SDS011;40551;50.478;19.378;2023-09-30T05:02:25;17.40;;;15.70;;
53525;SDS011;40551;50.478;19.378;2023-09-30T05:04:57;18.60;;;15.20;;
53525;SDS011;40551;50.478;19.378;2023-09-30T05:07:29;18.80;;;16.50;;
53525;SDS011;40551;50.478;19.378;2023-09-30T05:10:00;20.70;;;18.20;;
53525;SDS011;40551;50.478;19.378;2023-09-30T05:12:34;22.40;;;18.40;;
53525;SDS011;40551;50.478;19.378;2023-09-30T05:15:07;18.70;;;16.80;;
53525;SDS011;40551;50.478;19.378;2023-09-30T05:17:40;24.60;;;16.00;;
53525;SDS011;40551;50.478;19.378;2023-09-30T05:20:13;17.30;;;15.60;;
53525;SDS011;40551;50.478;19.378;2023-09-30T05:22:47;21.90;;;17.10;;
53525;SDS011;40551;50.478;19.378;2023-09-30T05:25:19;17.70;;;15.90;;
53525;SDS011;40551;50.478;19.378;2023-09-30T05:27:55;17.80;;;15.90;;
53525;SDS011;40551;50.478;19.378;2023-09-30T05:30:26;18.60;;;16.80;;
53525;SDS011;40551;50.478;19.378;2023-09-30T05:32:59;18.70;;;16.80;;
53525;SDS011;40551;50.478;19.378;2023-09-30T05:35:31;19.50;;;17.50;;
53525;SDS011;40551;50.478;19.378;2023-09-30T05:38:03;19.60;;;17.40;;
53525;SDS011;40551;50.478;19.378;2023-09-30T05:40:37;20.30;;;16.70;;
53525;SDS011;40551;50.478;19.378;2023-09-30T05:43:11;21.20;;;16.70;;
53525;SDS011;40551;50.478;19.378;2023-09-30T05:45:43;18.70;;;16.90;;
53525;SDS011;40551;50.478;19.378;2023-09-30T05:48:18;17.60;;;16.00;;
53525;SDS011;40551;50.478;19.378;2023-09-30T05:50:51;18.00;;;16.00;;
53525;SDS011;40551;50.478;19.378;2023-09-30T05:53:22;18.00;;;16.40;;
53525;SDS011;40551;50.478;19.378;2023-09-30T05:55:54;19.10;;;16.80;;
53525;SDS011;40551;50.478;19.378;2023-09-30T05:58:26;19.80;;;17.70;;
53525;SDS011;40551;50.478;19.378;2023-09-30T06:00:57;21.60;;;19.30;;
53525;SDS011;40551;50.478;19.378;2023-09-30T06:03:30;20.10;;;18.00;;
53525;SDS011;40551;50.478;19.378;2023-09-30T06:06:02;19.00;;;17.00;;
53525;SDS011;40551;50.478;19.378;2023-09-30T06:08:39;18.70;;;16.70;;
53525;SDS011;40551;50.478;19.378;2023-09-30T06:11:17;18.10;;;16.00;;
53525;SDS011;40551;50.478;19.378;2023-09-30T06:13:53;18.40;;;16.50;;
53525;SDS011;40551;50.478;19.378;2023-09-30T06:16:25;18.70;;;16.70;;
53525;SDS011;40551;50.478;19.378;2023-09-30T06:18:56;17.70;;;15.80;;
53525;SDS011;40551;50.478;19.378;2023-09-30T06:21:28;17.50;;;15.80;;
53525;SDS011;40551;50.478;19.378;2023-09-30T06:24:04;16.50;;;14.80;;
53525;SDS011;40551;50.478;19.378;2023-09-30T06:26:36;17.00;;;15.30;;
53525;SDS011;40551;50.478;19.378;2023-09-30T06:29:08;16.60;;;14.90;;
53525;SDS011;40551;50.478;19.378;2023-09-30T06:31:40;16.90;;;14.50;;
53525;SDS011;40551;50.478;19.378;2023-09-30T06:34:12;17.30;;;15.60;;
53525;SDS011;40551;50.478;19.378;2023-09-30T06:36:44;17.90;;;16.20;;
53525;SDS011;40551;50.478;19.378;2023-09-30T06:39:16;18.00;;;16.20;;
53525;SDS011;40551;50.478;19.378;2023-09-30T06:41:48;18.60;;;16.50;;
53525;SDS011;40551;50.478;19.378;2023-09-30T06:44:20;17.70;;;15.80;;
53525;SDS011;40551;50.478;19.378;2023-09-30T06:46:54;16.90;;;15.20;;
53525;SDS011;40551;50.478;19.378;2023-09-30T06:49:25;17.60;;;14.90;;
53525;SDS011;40551;50.478;19.378;2023-09-30T06:51:57;16.20;;;14.70;;
53525;SDS011;40551;50.478;19.378;2023-09-30T06:54:29;17.00;;;15.40;;
53525;SDS011;40551;50.478;19.378;2023-09-30T06:57:02;16.20;;;14.50;;
53525;SDS011;40551;50.478;19.378;2023-09-30T06:59:33;16.80;;;15.20;;
53525;SDS011;40551;50.478;19.378;2023-09-30T07:02:05;18.50;;;16.60;;
53525;SDS011;40551;50.478;19.378;2023-09-30T07:04:37;18.00;;;16.20;;
53525;SDS011;40551;50.478;19.378;2023-09-30T07:07:09;17.80;;;16.20;;
53525;SDS011;40551;50.478;19.378;2023-09-30T07:09:40;18.50;;;16.40;;
53525;SDS011;40551;50.478;19.378;2023-09-30T07:12:12;17.70;;;15.90;;
53525;SDS011;40551;50.478;19.378;2023-09-30T07:14:44;18.00;;;16.10;;
53525;SDS011;40551;50.478;19.378;2023-09-30T07:17:15;18.00;;;16.10;;
53525;SDS011;40551;50.478;19.378;2023-09-30T07:19:47;17.10;;;15.40;;
53525;SDS011;40551;50.478;19.378;2023-09-30T07:22:19;19.90;;;17.80;;
53525;SDS011;40551;50.478;19.378;2023-09-30T07:25:08;20.70;;;17.10;;
53525;SDS011;40551;50.478;19.378;2023-09-30T07:27:40;16.90;;;14.80;;
53525;SDS011;40551;50.478;19.378;2023-09-30T07:30:12;18.50;;;16.70;;
53525;SDS011;40551;50.478;19.378;2023-09-30T07:32:45;18.60;;;16.70;;
53525;SDS011;40551;50.478;19.378;2023-09-30T07:35:17;18.30;;;16.40;;
53525;SDS011;40551;50.478;19.378;2023-09-30T07:37:48;20.00;;;16.70;;
53525;SDS011;40551;50.478;19.378;2023-09-30T07:40:22;17.30;;;15.60;;
53525;SDS011;40551;50.478;19.378;2023-09-30T07:42:53;18.90;;;17.10;;
53525;SDS011;40551;50.478;19.378;2023-09-30T07:45:26;17.90;;;16.10;;
53525;SDS011;40551;50.478;19.378;2023-09-30T07:47:58;18.00;;;16.30;;
53525;SDS011;40551;50.478;19.378;2023-09-30T07:50:34;17.10;;;15.50;;
53525;SDS011;40551;50.478;19.378;2023-09-30T07:53:06;19.70;;;16.80;;
53525;SDS011;40551;50.478;19.378;2023-09-30T07:55:38;17.90;;;16.00;;
53525;SDS011;40551;50.478;19.378;2023-09-30T07:58:09;18.30;;;16.40;;
53525;SDS011;40551;50.478;19.378;2023-09-30T08:00:41;22.20;;;20.10;;
53525;SDS011;40551;50.478;19.378;2023-09-30T08:03:14;20.90;;;17.60;;
53525;SDS011;40551;50.478;19.378;2023-09-30T08:05:47;19.20;;;17.10;;
53525;SDS011;40551;50.478;19.378;2023-09-30T08:08:19;18.30;;;16.40;;
53525;SDS011;40551;50.478;19.378;2023-09-30T08:10:53;19.00;;;17.00;;
53525;SDS011;40551;50.478;19.378;2023-09-30T08:13:25;19.10;;;17.10;;
53525;SDS011;40551;50.478;19.378;2023-09-30T08:15:58;19.70;;;15.70;;
53525;SDS011;40551;50.478;19.378;2023-09-30T08:18:30;20.30;;;18.20;;
53525;SDS011;40551;50.478;19.378;2023-09-30T08:21:02;18.90;;;16.60;;
53525;SDS011;40551;50.478;19.378;2023-09-30T08:23:34;18.90;;;17.10;;
53525;SDS011;40551;50.478;19.378;2023-09-30T08:26:05;21.80;;;17.00;;
53525;SDS011;40551;50.478;19.378;2023-09-30T08:28:37;21.90;;;17.90;;
53525;SDS011;40551;50.478;19.378;2023-09-30T08:31:09;20.90;;;16.80;;
53525;SDS011;40551;50.478;19.378;2023-09-30T08:33:41;19.30;;;17.50;;
53525;SDS011;40551;50.478;19.378;2023-09-30T08:36:14;19.50;;;17.40;;
53525;SDS011;40551;50.478;19.378;2023-09-30T08:38:46;19.30;;;17.20;;
53525;SDS011;40551;50.478;19.378;2023-09-30T08:41:24;20.70;;;18.80;;
53525;SDS011;40551;50.478;19.378;2023-09-30T08:44:02;18.10;;;16.60;;
53525;SDS011;40551;50.478;19.378;2023-09-30T08:46:34;18.50;;;16.50;;
53525;SDS011;40551;50.478;19.378;2023-09-30T08:49:06;19.10;;;17.00;;
53525;SDS011;40551;50.478;19.378;2023-09-30T08:51:41;20.80;;;17.70;;
53525;SDS011;40551;50.478;19.378;2023-09-30T08:54:15;23.70;;;17.80;;
53525;SDS011;40551;50.478;19.378;2023-09-30T08:56:47;19.70;;;17.80;;
53525;SDS011;40551;50.478;19.378;2023-09-30T08:59:19;23.00;;;17.40;;
53525;SDS011;40551;50.478;19.378;2023-09-30T09:01:51;19.50;;;17.30;;
53525;SDS011;40551;50.478;19.378;2023-09-30T09:04:23;20.20;;;17.40;;
53525;SDS011;40551;50.478;19.378;2023-09-30T09:06:55;22.40;;;19.20;;
53525;SDS011;40551;50.478;19.378;2023-09-30T09:09:27;19.30;;;17.40;;
53525;SDS011;40551;50.478;19.378;2023-09-30T09:11:59;21.30;;;19.20;;
53525;SDS011;40551;50.478;19.378;2023-09-30T09:14:38;22.30;;;18.20;;
53525;SDS011;40551;50.478;19.378;2023-09-30T09:17:11;19.40;;;17.10;;
53525;SDS011;40551;50.478;19.378;2023-09-30T09:19:45;20.10;;;18.20;;
53525;SDS011;40551;50.478;19.378;2023-09-30T09:22:43;21.70;;;19.70;;
53525;SDS011;40551;50.478;19.378;2023-09-30T09:25:15;19.00;;;17.00;;
53525;SDS011;40551;50.478;19.378;2023-09-30T09:27:47;20.60;;;17.50;;
53525;SDS011;40551;50.478;19.378;2023-09-30T09:30:19;19.50;;;17.30;;
53525;SDS011;40551;50.478;19.378;2023-09-30T09:32:57;20.40;;;17.90;;
53525;SDS011;40551;50.478;19.378;2023-09-30T09:35:31;21.70;;;19.50;;
53525;SDS011;40551;50.478;19.378;2023-09-30T09:38:04;22.00;;;17.30;;
53525;SDS011;40551;50.478;19.378;2023-09-30T09:40:38;20.50;;;16.40;;
53525;SDS011;40551;50.478;19.378;2023-09-30T09:43:10;17.30;;;15.50;;
53525;SDS011;40551;50.478;19.378;2023-09-30T09:45:42;20.00;;;17.30;;
53525;SDS011;40551;50.478;19.378;2023-09-30T09:48:15;18.70;;;16.80;;
53525;SDS011;40551;50.478;19.378;2023-09-30T09:50:48;20.90;;;16.70;;
53525;SDS011;40551;50.478;19.378;2023-09-30T09:53:20;21.90;;;19.60;;
53525;SDS011;40551;50.478;19.378;2023-09-30T09:55:53;21.00;;;19.10;;
53525;SDS011;40551;50.478;19.378;2023-09-30T09:58:26;18.90;;;17.20;;
53525;SDS011;40551;50.478;19.378;2023-09-30T10:01:03;20.10;;;18.30;;
53525;SDS011;40551;50.478;19.378;2023-09-30T10:03:35;20.50;;;18.60;;
53525;SDS011;40551;50.478;19.378;2023-09-30T10:06:08;21.00;;;18.50;;
53525;SDS011;40551;50.478;19.378;2023-09-30T10:08:40;20.00;;;18.10;;
53525;SDS011;40551;50.478;19.378;2023-09-30T10:11:17;20.90;;;19.00;;
53525;SDS011;40551;50.478;19.378;2023-09-30T10:13:51;21.60;;;19.40;;
53525;SDS011;40551;50.478;19.378;2023-09-30T10:19:21;19.80;;;18.00;;
53525;SDS011;40551;50.478;19.378;2023-09-30T10:24:55;19.70;;;17.80;;
53525;SDS011;40551;50.478;19.378;2023-09-30T10:27:29;19.80;;;17.80;;
53525;SDS011;40551;50.478;19.378;2023-09-30T10:30:10;20.50;;;18.50;;
53525;SDS011;40551;50.478;19.378;2023-09-30T10:35:46;22.90;;;20.60;;
53525;SDS011;40551;50.478;19.378;2023-09-30T10:41:15;21.20;;;19.30;;
53525;SDS011;40551;50.478;19.378;2023-09-30T10:44:33;22.40;;;20.40;;
53525;SDS011;40551;50.478;19.378;2023-09-30T10:50:48;22.10;;;19.90;;
53525;SDS011;40551;50.478;19.378;2023-09-30T10:53:21;21.20;;;19.20;;
53525;SDS011;40551;50.478;19.378;2023-09-30T10:55:54;20.90;;;18.90;;
53525;SDS011;40551;50.478;19.378;2023-09-30T10:58:39;22.80;;;20.80;;
53525;SDS011;40551;50.478;19.378;2023-09-30T11:01:12;23.80;;;21.40;;
53525;SDS011;40551;50.478;19.378;2023-09-30T11:03:46;22.80;;;20.50;;
53525;SDS011;40551;50.478;19.378;2023-09-30T11:06:21;22.20;;;20.00;;
53525;SDS011;40551;50.478;19.378;2023-09-30T11:08:53;22.20;;;20.10;;
53525;SDS011;40551;50.478;19.378;2023-09-30T11:11:35;23.90;;;20.00;;
53525;SDS011;40551;50.478;19.378;2023-09-30T11:16:57;19.80;;;17.80;;
53525;SDS011;40551;50.478;19.378;2023-09-30T11:19:35;20.70;;;18.70;;
53525;SDS011;40551;50.478;19.378;2023-09-30T11:22:17;20.00;;;17.90;;
53525;SDS011;40551;50.478;19.378;2023-09-30T11:24:50;22.50;;;20.30;;
53525;SDS011;40551;50.478;19.378;2023-09-30T11:27:25;19.20;;;17.40;;
53525;SDS011;40551;50.478;19.378;2023-09-30T11:29:57;21.20;;;19.20;;
53525;SDS011;40551;50.478;19.378;2023-09-30T11:32:32;23.00;;;20.40;;
53525;SDS011;40551;50.478;19.378;2023-09-30T11:35:05;22.00;;;18.60;;
53525;SDS011;40551;50.478;19.378;2023-09-30T11:37:52;22.60;;;20.30;;
53525;SDS011;40551;50.478;19.378;2023-09-30T11:40:23;19.00;;;17.00;;
53525;SDS011;40551;50.478;19.378;2023-09-30T11:43:08;20.20;;;16.50;;
53525;SDS011;40551;50.478;19.378;2023-09-30T11:45:41;19.60;;;15.30;;
53525;SDS011;40551;50.478;19.378;2023-09-30T11:48:19;15.90;;;13.00;;
53525;SDS011;40551;50.478;19.378;2023-09-30T11:50:51;16.00;;;11.70;;
53525;SDS011;40551;50.478;19.378;2023-09-30T11:53:24;15.40;;;12.50;;
53525;SDS011;40551;50.478;19.378;2023-09-30T11:55:56;13.30;;;10.50;;
53525;SDS011;40551;50.478;19.378;2023-09-30T11:58:28;12.80;;;10.50;;
53525;SDS011;40551;50.478;19.378;2023-09-30T12:01:01;13.40;;;9.90;;
53525;SDS011;40551;50.478;19.378;2023-09-30T12:03:36;12.10;;;10.10;;
53525;SDS011;40551;50.478;19.378;2023-09-30T12:06:09;13.40;;;10.50;;
53525;SDS011;40551;50.478;19.378;2023-09-30T12:08:42;13.40;;;9.50;;
53525;SDS011;40551;50.478;19.378;2023-09-30T12:11:15;12.90;;;8.50;;
53525;SDS011;40551;50.478;19.378;2023-09-30T12:13:47;11.20;;;7.40;;
53525;SDS011;40551;50.478;19.378;2023-09-30T12:16:19;14.30;;;8.00;;
53525;SDS011;40551;50.478;19.378;2023-09-30T12:18:52;12.60;;;7.90;;
53525;SDS011;40551;50.478;19.378;2023-09-30T12:21:24;13.30;;;8.70;;
53525;SDS011;40551;50.478;19.378;2023-09-30T12:23:56;13.30;;;8.60;;
53525;SDS011;40551;50.478;19.378;2023-09-30T12:26:27;16.90;;;8.20;;
53525;SDS011;40551;50.478;19.378;2023-09-30T12:28:59;11.90;;;7.70;;
53525;SDS011;40551;50.478;19.378;2023-09-30T12:31:32;14.60;;;8.90;;
53525;SDS011;40551;50.478;19.378;2023-09-30T12:34:20;12.90;;;8.20;;
53525;SDS011;40551;50.478;19.378;2023-09-30T12:36:55;13.70;;;9.20;;
53525;SDS011;40551;50.478;19.378;2023-09-30T12:39:27;21.30;;;9.00;;
53525;SDS011;40551;50.478;19.378;2023-09-30T12:42:02;14.60;;;8.70;;
53525;SDS011;40551;50.478;19.378;2023-09-30T12:44:38;16.70;;;8.70;;
53525;SDS011;40551;50.478;19.378;2023-09-30T12:47:10;13.70;;;8.90;;
53525;SDS011;40551;50.478;19.378;2023-09-30T12:49:42;12.80;;;8.90;;
53525;SDS011;40551;50.478;19.378;2023-09-30T12:52:14;15.00;;;8.10;;
53525;SDS011;40551;50.478;19.378;2023-09-30T12:54:46;17.40;;;8.50;;
53525;SDS011;40551;50.478;19.378;2023-09-30T12:57:18;16.60;;;8.70;;
53525;SDS011;40551;50.478;19.378;2023-09-30T12:59:50;21.70;;;8.40;;
53525;SDS011;40551;50.478;19.378;2023-09-30T13:02:22;16.30;;;8.10;;
53525;SDS011;40551;50.478;19.378;2023-09-30T13:04:54;14.20;;;8.30;;
53525;SDS011;40551;50.478;19.378;2023-09-30T13:07:27;13.20;;;8.60;;
53525;SDS011;40551;50.478;19.378;2023-09-30T13:09:58;17.60;;;8.60;;
53525;SDS011;40551;50.478;19.378;2023-09-30T13:12:31;16.20;;;8.00;;
53525;SDS011;40551;50.478;19.378;2023-09-30T13:15:03;16.30;;;8.20;;
53525;SDS011;40551;50.478;19.378;2023-09-30T13:17:37;13.20;;;8.60;;
53525;SDS011;40551;50.478;19.378;2023-09-30T13:20:10;14.80;;;8.60;;
53525;SDS011;40551;50.478;19.378;2023-09-30T13:22:42;16.70;;;7.70;;
53525;SDS011;40551;50.478;19.378;2023-09-30T13:25:15;16.70;;;8.00;;
53525;SDS011;40551;50.478;19.378;2023-09-30T13:27:47;17.50;;;8.50;;
53525;SDS011;40551;50.478;19.378;2023-09-30T13:30:19;14.50;;;8.50;;
53525;SDS011;40551;50.478;19.378;2023-09-30T13:32:52;15.40;;;7.60;;
53525;SDS011;40551;50.478;19.378;2023-09-30T13:35:25;15.40;;;7.80;;
53525;SDS011;40551;50.478;19.378;2023-09-30T13:37:56;15.00;;;7.90;;
53525;SDS011;40551;50.478;19.378;2023-09-30T13:40:29;18.50;;;7.70;;
53525;SDS011;40551;50.478;19.378;2023-09-30T13:43:01;11.90;;;7.70;;
53525;SDS011;40551;50.478;19.378;2023-09-30T13:45:35;17.50;;;8.10;;
53525;SDS011;40551;50.478;19.378;2023-09-30T13:48:07;13.10;;;7.10;;
53525;SDS011;40551;50.478;19.378;2023-09-30T13:50:41;15.20;;;8.40;;
53525;SDS011;40551;50.478;19.378;2023-09-30T13:53:13;14.00;;;8.00;;
53525;SDS011;40551;50.478;19.378;2023-09-30T13:55:44;15.00;;;7.20;;
53525;SDS011;40551;50.478;19.378;2023-09-30T13:58:16;13.70;;;7.50;;
53525;SDS011;40551;50.478;19.378;2023-09-30T14:00:48;16.00;;;8.00;;
53525;SDS011;40551;50.478;19.378;2023-09-30T14:03:21;16.10;;;7.30;;
53525;SDS011;40551;50.478;19.378;2023-09-30T14:05:54;15.00;;;7.20;;
53525;SDS011;40551;50.478;19.378;2023-09-30T14:08:26;15.80;;;6.60;;
53525;SDS011;40551;50.478;19.378;2023-09-30T14:10:59;12.10;;;6.40;;
53525;SDS011;40551;50.478;19.378;2023-09-30T14:13:31;12.70;;;7.20;;
53525;SDS011;40551;50.478;19.378;2023-09-30T14:16:03;13.40;;;6.20;;
53525;SDS011;40551;50.478;19.378;2023-09-30T14:18:35;17.00;;;7.20;;
53525;SDS011;40551;50.478;19.378;2023-09-30T14:21:08;17.00;;;6.70;;
53525;SDS011;40551;50.478;19.378;2023-09-30T14:23:40;15.50;;;6.50;;
53525;SDS011;40551;50.478;19.378;2023-09-30T14:26:11;12.20;;;6.40;;
53525;SDS011;40551;50.478;19.378;2023-09-30T14:28:43;14.80;;;6.60;;
53525;SDS011;40551;50.478;19.378;2023-09-30T14:31:15;12.20;;;6.30;;
53525;SDS011;40551;50.478;19.378;2023-09-30T14:33:47;16.00;;;5.90;;
53525;SDS011;40551;50.478;19.378;2023-09-30T14:36:20;18.40;;;7.30;;
53525;SDS011;40551;50.478;19.378;2023-09-30T14:38:52;13.30;;;6.20;;
53525;SDS011;40551;50.478;19.378;2023-09-30T14:41:40;14.10;;;5.90;;
53525;SDS011;40551;50.478;19.378;2023-09-30T14:44:12;10.30;;;5.10;;
53525;SDS011;40551;50.478;19.378;2023-09-30T14:46:44;20.50;;;5.80;;
53525;SDS011;40551;50.478;19.378;2023-09-30T14:49:16;16.70;;;6.20;;
53525;SDS011;40551;50.478;19.378;2023-09-30T14:51:48;14.80;;;6.20;;
53525;SDS011;40551;50.478;19.378;2023-09-30T14:54:19;14.10;;;6.70;;
53525;SDS011;40551;50.478;19.378;2023-09-30T14:56:51;11.50;;;5.70;;
53525;SDS011;40551;50.478;19.378;2023-09-30T14:59:23;13.20;;;6.00;;
53525;SDS011;40551;50.478;19.378;2023-09-30T15:01:55;14.40;;;5.70;;
53525;SDS011;40551;50.478;19.378;2023-09-30T15:04:27;11.50;;;4.80;;
53525;SDS011;40551;50.478;19.378;2023-09-30T15:06:59;10.50;;;5.20;;
53525;SDS011;40551;50.478;19.378;2023-09-30T15:09:31;16.90;;;5.50;;
53525;SDS011;40551;50.478;19.378;2023-09-30T15:12:03;13.70;;;5.60;;
53525;SDS011;40551;50.478;19.378;2023-09-30T15:14:35;13.00;;;4.90;;